sensor_id;sensor_type;location;lat;lon;timestamp;P1;durP1;ratioP1;P2;durP2;ratioP2
44480;SDS011;30184;42.018;23.670;2023-05-10T00:01:25;5.72;;;2.22;;
44480;SDS011;30184;42.018;23.670;2023-05-10T00:03:54;2.80;;;1.20;;
44480;SDS011;30184;42.018;23.670;2023-05-10T00:06:23;3.38;;;1.30;;
44480;SDS011;30184;42.018;23.670;2023-05-10T00:08:52;5.70;;;2.20;;
44480;SDS011;30184;42.018;23.670;2023-05-10T00:11:23;5.80;;;1.35;;
44480;SDS011;30184;42.018;23.670;2023-05-10T00:13:52;8.20;;;3.97;;
44480;SDS011;30184;42.018;23.670;2023-05-10T00:16:21;7.75;;;3.58;;
44480;SDS011;30184;42.018;23.670;2023-05-10T00:18:51;3.08;;;1.50;;
44480;SDS011;30184;42.018;23.670;2023-05-10T00:21:20;4.25;;;1.90;;
44480;SDS011;30184;42.018;23.670;2023-05-10T00:23:49;2.85;;;1.27;;
44480;SDS011;30184;42.018;23.670;2023-05-10T00:26:18;8.05;;;3.08;;
44480;SDS011;30184;42.018;23.670;2023-05-10T00:28:53;2.05;;;1.27;;
44480;SDS011;30184;42.018;23.670;2023-05-10T00:31:22;6.28;;;2.47;;
44480;SDS011;30184;42.018;23.670;2023-05-10T00:33:51;4.97;;;1.70;;
44480;SDS011;30184;42.018;23.670;2023-05-10T00:36:20;6.30;;;2.15;;
44480;SDS011;30184;42.018;23.670;2023-05-10T00:38:49;4.85;;;2.17;;
44480;SDS011;30184;42.018;23.670;2023-05-10T00:41:18;4.43;;;2.15;;
44480;SDS011;30184;42.018;23.670;2023-05-10T00:43:48;3.28;;;1.58;;
44480;SDS011;30184;42.018;23.670;2023-05-10T00:46:19;3.60;;;1.38;;
44480;SDS011;30184;42.018;23.670;2023-05-10T00:48:49;2.08;;;1.25;;
44480;SDS011;30184;42.018;23.670;2023-05-10T00:51:18;2.10;;;1.20;;
44480;SDS011;30184;42.018;23.670;2023-05-10T00:53:48;3.05;;;1.38;;
44480;SDS011;30184;42.018;23.670;2023-05-10T00:56:19;4.05;;;2.00;;
44480;SDS011;30184;42.018;23.670;2023-05-10T00:58:50;2.95;;;1.58;;
44480;SDS011;30184;42.018;23.670;2023-05-10T01:01:21;3.33;;;1.70;;
44480;SDS011;30184;42.018;23.670;2023-05-10T01:03:51;3.67;;;1.27;;
44480;SDS011;30184;42.018;23.670;2023-05-10T01:06:21;4.03;;;1.40;;
44480;SDS011;30184;42.018;23.670;2023-05-10T01:08:51;2.60;;;1.45;;
44480;SDS011;30184;42.018;23.670;2023-05-10T01:11:20;8.13;;;1.65;;
44480;SDS011;30184;42.018;23.670;2023-05-10T01:13:52;2.53;;;1.48;;
44480;SDS011;30184;42.018;23.670;2023-05-10T01:16:28;17.23;;;8.57;;
44480;SDS011;30184;42.018;23.670;2023-05-10T01:19:00;5.10;;;2.30;;
44480;SDS011;30184;42.018;23.670;2023-05-10T01:21:31;4.05;;;1.70;;
44480;SDS011;30184;42.018;23.670;2023-05-10T01:24:24;3.15;;;1.40;;
44480;SDS011;30184;42.018;23.670;2023-05-10T01:27:35;2.83;;;1.48;;
44480;SDS011;30184;42.018;23.670;2023-05-10T01:30:35;2.45;;;1.38;;
44480;SDS011;30184;42.018;23.670;2023-05-10T01:33:34;4.10;;;2.17;;
44480;SDS011;30184;42.018;23.670;2023-05-10T01:36:09;4.43;;;2.00;;
44480;SDS011;30184;42.018;23.670;2023-05-10T01:38:46;5.57;;;1.80;;
44480;SDS011;30184;42.018;23.670;2023-05-10T01:41:19;5.03;;;1.30;;
44480;SDS011;30184;42.018;23.670;2023-05-10T01:43:57;3.83;;;1.65;;
44480;SDS011;30184;42.018;23.670;2023-05-10T01:46:32;2.53;;;1.40;;
44480;SDS011;30184;42.018;23.670;2023-05-10T01:49:07;2.42;;;1.42;;
44480;SDS011;30184;42.018;23.670;2023-05-10T01:51:39;3.15;;;1.60;;
44480;SDS011;30184;42.018;23.670;2023-05-10T01:54:14;5.35;;;1.58;;
44480;SDS011;30184;42.018;23.670;2023-05-10T01:56:47;6.15;;;1.80;;
44480;SDS011;30184;42.018;23.670;2023-05-10T01:59:26;3.20;;;1.67;;
44480;SDS011;30184;42.018;23.670;2023-05-10T02:01:59;4.20;;;1.70;;
44480;SDS011;30184;42.018;23.670;2023-05-10T02:04:31;2.65;;;1.48;;
44480;SDS011;30184;42.018;23.670;2023-05-10T02:07:04;3.50;;;1.38;;
44480;SDS011;30184;42.018;23.670;2023-05-10T02:09:35;4.50;;;1.75;;
44480;SDS011;30184;42.018;23.670;2023-05-10T02:12:05;4.75;;;1.20;;
44480;SDS011;30184;42.018;23.670;2023-05-10T02:14:36;2.10;;;1.33;;
44480;SDS011;30184;42.018;23.670;2023-05-10T02:17:05;2.60;;;1.40;;
44480;SDS011;30184;42.018;23.670;2023-05-10T02:19:39;2.47;;;1.42;;
44480;SDS011;30184;42.018;23.670;2023-05-10T02:22:10;2.60;;;1.70;;
44480;SDS011;30184;42.018;23.670;2023-05-10T02:24:41;2.88;;;1.80;;
44480;SDS011;30184;42.018;23.670;2023-05-10T02:27:11;4.57;;;2.00;;
44480;SDS011;30184;42.018;23.670;2023-05-10T02:29:42;3.42;;;2.10;;
44480;SDS011;30184;42.018;23.670;2023-05-10T02:32:12;3.60;;;2.13;;
44480;SDS011;30184;42.018;23.670;2023-05-10T02:34:45;2.95;;;1.77;;
44480;SDS011;30184;42.018;23.670;2023-05-10T02:37:19;2.85;;;2.13;;
44480;SDS011;30184;42.018;23.670;2023-05-10T02:39:50;3.17;;;2.08;;
44480;SDS011;30184;42.018;23.670;2023-05-10T02:42:22;2.60;;;1.70;;
44480;SDS011;30184;42.018;23.670;2023-05-10T02:44:54;3.67;;;2.38;;
44480;SDS011;30184;42.018;23.670;2023-05-10T02:47:28;2.78;;;1.90;;
44480;SDS011;30184;42.018;23.670;2023-05-10T02:49:59;5.38;;;2.20;;
44480;SDS011;30184;42.018;23.670;2023-05-10T02:52:34;2.42;;;1.77;;
44480;SDS011;30184;42.018;23.670;2023-05-10T02:55:09;3.28;;;1.95;;
44480;SDS011;30184;42.018;23.670;2023-05-10T02:57:41;3.00;;;1.90;;
44480;SDS011;30184;42.018;23.670;2023-05-10T03:00:13;3.72;;;2.38;;
44480;SDS011;30184;42.018;23.670;2023-05-10T03:02:43;3.63;;;2.30;;
44480;SDS011;30184;42.018;23.670;2023-05-10T03:05:14;5.32;;;2.55;;
44480;SDS011;30184;42.018;23.670;2023-05-10T03:07:43;5.10;;;2.50;;
44480;SDS011;30184;42.018;23.670;2023-05-10T03:10:13;3.90;;;2.60;;
44480;SDS011;30184;42.018;23.670;2023-05-10T03:12:49;3.63;;;2.53;;
44480;SDS011;30184;42.018;23.670;2023-05-10T03:15:34;5.72;;;4.75;;
44480;SDS011;30184;42.018;23.670;2023-05-10T03:18:12;6.53;;;4.43;;
44480;SDS011;30184;42.018;23.670;2023-05-10T03:20:46;4.78;;;4.05;;
44480;SDS011;30184;42.018;23.670;2023-05-10T03:23:20;4.72;;;3.10;;
44480;SDS011;30184;42.018;23.670;2023-05-10T03:25:52;3.97;;;3.47;;
44480;SDS011;30184;42.018;23.670;2023-05-10T03:28:22;7.25;;;4.00;;
44480;SDS011;30184;42.018;23.670;2023-05-10T03:30:54;28.00;;;10.85;;
44480;SDS011;30184;42.018;23.670;2023-05-10T03:33:25;9.93;;;5.20;;
44480;SDS011;30184;42.018;23.670;2023-05-10T03:35:55;5.38;;;3.63;;
44480;SDS011;30184;42.018;23.670;2023-05-10T03:38:25;5.05;;;3.70;;
44480;SDS011;30184;42.018;23.670;2023-05-10T03:40:56;5.53;;;4.18;;
44480;SDS011;30184;42.018;23.670;2023-05-10T03:43:25;8.07;;;6.95;;
44480;SDS011;30184;42.018;23.670;2023-05-10T03:45:54;6.88;;;5.65;;
44480;SDS011;30184;42.018;23.670;2023-05-10T03:48:24;11.30;;;7.40;;
44480;SDS011;30184;42.018;23.670;2023-05-10T03:50:53;6.45;;;5.20;;
44480;SDS011;30184;42.018;23.670;2023-05-10T03:53:23;9.35;;;5.97;;
44480;SDS011;30184;42.018;23.670;2023-05-10T03:55:53;5.15;;;3.97;;
44480;SDS011;30184;42.018;23.670;2023-05-10T03:58:22;8.32;;;5.82;;
44480;SDS011;30184;42.018;23.670;2023-05-10T04:00:51;9.75;;;5.43;;
44480;SDS011;30184;42.018;23.670;2023-05-10T04:03:21;9.15;;;6.85;;
44480;SDS011;30184;42.018;23.670;2023-05-10T04:05:57;9.25;;;7.35;;
44480;SDS011;30184;42.018;23.670;2023-05-10T04:08:29;8.20;;;6.47;;
44480;SDS011;30184;42.018;23.670;2023-05-10T04:11:05;8.32;;;6.65;;
44480;SDS011;30184;42.018;23.670;2023-05-10T04:13:35;7.47;;;5.55;;
44480;SDS011;30184;42.018;23.670;2023-05-10T04:16:04;8.02;;;6.00;;
44480;SDS011;30184;42.018;23.670;2023-05-10T04:18:34;6.57;;;5.10;;
44480;SDS011;30184;42.018;23.670;2023-05-10T04:21:03;7.85;;;6.30;;
44480;SDS011;30184;42.018;23.670;2023-05-10T04:23:34;9.07;;;6.78;;
44480;SDS011;30184;42.018;23.670;2023-05-10T04:26:03;10.57;;;7.93;;
44480;SDS011;30184;42.018;23.670;2023-05-10T04:28:32;10.00;;;7.70;;
44480;SDS011;30184;42.018;23.670;2023-05-10T04:31:02;9.18;;;6.72;;
44480;SDS011;30184;42.018;23.670;2023-05-10T04:33:31;9.25;;;7.00;;
44480;SDS011;30184;42.018;23.670;2023-05-10T04:36:01;11.52;;;8.52;;
44480;SDS011;30184;42.018;23.670;2023-05-10T04:38:31;11.35;;;8.25;;
44480;SDS011;30184;42.018;23.670;2023-05-10T04:41:05;9.23;;;7.50;;
44480;SDS011;30184;42.018;23.670;2023-05-10T04:43:35;8.88;;;6.97;;
44480;SDS011;30184;42.018;23.670;2023-05-10T04:46:05;9.90;;;7.68;;
44480;SDS011;30184;42.018;23.670;2023-05-10T04:48:34;9.23;;;6.50;;
44480;SDS011;30184;42.018;23.670;2023-05-10T04:51:03;9.20;;;6.65;;
44480;SDS011;30184;42.018;23.670;2023-05-10T04:53:33;14.32;;;9.73;;
44480;SDS011;30184;42.018;23.670;2023-05-10T04:56:03;12.32;;;8.27;;
44480;SDS011;30184;42.018;23.670;2023-05-10T04:58:34;12.00;;;8.90;;
44480;SDS011;30184;42.018;23.670;2023-05-10T05:01:06;11.10;;;7.75;;
44480;SDS011;30184;42.018;23.670;2023-05-10T05:03:36;11.50;;;8.13;;
44480;SDS011;30184;42.018;23.670;2023-05-10T05:06:06;14.00;;;9.52;;
44480;SDS011;30184;42.018;23.670;2023-05-10T05:08:35;9.27;;;6.72;;
44480;SDS011;30184;42.018;23.670;2023-05-10T05:11:05;14.80;;;9.07;;
44480;SDS011;30184;42.018;23.670;2023-05-10T05:13:35;13.88;;;9.82;;
44480;SDS011;30184;42.018;23.670;2023-05-10T05:16:05;14.50;;;10.60;;
44480;SDS011;30184;42.018;23.670;2023-05-10T05:18:34;10.55;;;8.38;;
44480;SDS011;30184;42.018;23.670;2023-05-10T05:21:03;15.27;;;10.63;;
44480;SDS011;30184;42.018;23.670;2023-05-10T05:23:42;11.23;;;8.85;;
44480;SDS011;30184;42.018;23.670;2023-05-10T05:26:12;11.82;;;8.73;;
44480;SDS011;30184;42.018;23.670;2023-05-10T05:28:42;12.50;;;8.95;;
44480;SDS011;30184;42.018;23.670;2023-05-10T05:31:11;24.95;;;14.60;;
44480;SDS011;30184;42.018;23.670;2023-05-10T05:33:41;18.02;;;10.82;;
44480;SDS011;30184;42.018;23.670;2023-05-10T05:36:10;13.30;;;10.23;;
44480;SDS011;30184;42.018;23.670;2023-05-10T05:38:39;17.02;;;11.95;;
44480;SDS011;30184;42.018;23.670;2023-05-10T05:41:08;21.25;;;12.93;;
44480;SDS011;30184;42.018;23.670;2023-05-10T05:43:38;19.77;;;13.85;;
44480;SDS011;30184;42.018;23.670;2023-05-10T05:46:07;24.13;;;14.15;;
44480;SDS011;30184;42.018;23.670;2023-05-10T05:48:37;16.92;;;12.93;;
44480;SDS011;30184;42.018;23.670;2023-05-10T05:51:06;16.33;;;9.48;;
44480;SDS011;30184;42.018;23.670;2023-05-10T05:53:35;20.05;;;13.20;;
44480;SDS011;30184;42.018;23.670;2023-05-10T05:56:04;21.58;;;13.68;;
44480;SDS011;30184;42.018;23.670;2023-05-10T05:58:33;33.38;;;20.20;;
44480;SDS011;30184;42.018;23.670;2023-05-10T06:01:04;33.05;;;20.13;;
44480;SDS011;30184;42.018;23.670;2023-05-10T06:03:34;20.98;;;13.00;;
44480;SDS011;30184;42.018;23.670;2023-05-10T06:06:03;20.70;;;12.40;;
44480;SDS011;30184;42.018;23.670;2023-05-10T06:08:32;16.65;;;11.18;;
44480;SDS011;30184;42.018;23.670;2023-05-10T06:11:01;26.58;;;16.17;;
44480;SDS011;30184;42.018;23.670;2023-05-10T06:13:31;26.17;;;16.02;;
44480;SDS011;30184;42.018;23.670;2023-05-10T06:16:04;25.73;;;16.38;;
44480;SDS011;30184;42.018;23.670;2023-05-10T06:18:33;19.13;;;13.02;;
44480;SDS011;30184;42.018;23.670;2023-05-10T06:21:02;15.95;;;10.80;;
44480;SDS011;30184;42.018;23.670;2023-05-10T06:23:32;20.30;;;12.85;;
44480;SDS011;30184;42.018;23.670;2023-05-10T06:26:01;19.02;;;12.95;;
44480;SDS011;30184;42.018;23.670;2023-05-10T06:28:31;24.40;;;14.18;;
44480;SDS011;30184;42.018;23.670;2023-05-10T06:31:01;45.90;;;26.58;;
44480;SDS011;30184;42.018;23.670;2023-05-10T06:33:31;22.98;;;15.20;;
44480;SDS011;30184;42.018;23.670;2023-05-10T06:36:01;19.38;;;12.55;;
44480;SDS011;30184;42.018;23.670;2023-05-10T06:38:30;30.58;;;15.85;;
44480;SDS011;30184;42.018;23.670;2023-05-10T06:40:59;26.63;;;15.02;;
44480;SDS011;30184;42.018;23.670;2023-05-10T06:43:28;36.28;;;15.50;;
44480;SDS011;30184;42.018;23.670;2023-05-10T06:45:58;14.35;;;9.63;;
44480;SDS011;30184;42.018;23.670;2023-05-10T06:48:27;12.73;;;8.48;;
44480;SDS011;30184;42.018;23.670;2023-05-10T06:50:57;13.48;;;9.70;;
44480;SDS011;30184;42.018;23.670;2023-05-10T06:53:26;15.93;;;9.50;;
44480;SDS011;30184;42.018;23.670;2023-05-10T06:55:56;14.25;;;9.15;;
44480;SDS011;30184;42.018;23.670;2023-05-10T06:58:25;24.60;;;12.88;;
44480;SDS011;30184;42.018;23.670;2023-05-10T07:00:54;22.83;;;14.20;;
44480;SDS011;30184;42.018;23.670;2023-05-10T07:03:30;23.37;;;14.70;;
44480;SDS011;30184;42.018;23.670;2023-05-10T07:06:01;16.75;;;9.55;;
44480;SDS011;30184;42.018;23.670;2023-05-10T07:08:31;13.95;;;8.73;;
44480;SDS011;30184;42.018;23.670;2023-05-10T07:11:01;18.92;;;11.57;;
44480;SDS011;30184;42.018;23.670;2023-05-10T07:13:31;17.52;;;11.93;;
44480;SDS011;30184;42.018;23.670;2023-05-10T07:16:01;16.00;;;10.27;;
44480;SDS011;30184;42.018;23.670;2023-05-10T07:18:31;16.80;;;9.93;;
44480;SDS011;30184;42.018;23.670;2023-05-10T07:21:02;21.33;;;12.63;;
44480;SDS011;30184;42.018;23.670;2023-05-10T07:23:31;19.63;;;12.48;;
44480;SDS011;30184;42.018;23.670;2023-05-10T07:26:01;8.48;;;5.95;;
44480;SDS011;30184;42.018;23.670;2023-05-10T07:28:30;12.27;;;8.07;;
44480;SDS011;30184;42.018;23.670;2023-05-10T07:30:59;8.60;;;5.80;;
44480;SDS011;30184;42.018;23.670;2023-05-10T07:33:28;17.70;;;10.13;;
44480;SDS011;30184;42.018;23.670;2023-05-10T07:35:58;18.73;;;10.25;;
44480;SDS011;30184;42.018;23.670;2023-05-10T07:38:29;17.13;;;10.93;;
44480;SDS011;30184;42.018;23.670;2023-05-10T07:40:58;16.20;;;10.15;;
44480;SDS011;30184;42.018;23.670;2023-05-10T07:43:27;15.15;;;9.95;;
44480;SDS011;30184;42.018;23.670;2023-05-10T07:45:56;15.00;;;8.43;;
44480;SDS011;30184;42.018;23.670;2023-05-10T07:48:27;16.50;;;10.10;;
44480;SDS011;30184;42.018;23.670;2023-05-10T07:50:56;11.27;;;8.07;;
44480;SDS011;30184;42.018;23.670;2023-05-10T07:53:25;13.55;;;9.18;;
44480;SDS011;30184;42.018;23.670;2023-05-10T07:55:57;13.15;;;8.55;;
44480;SDS011;30184;42.018;23.670;2023-05-10T07:58:27;12.65;;;7.93;;
44480;SDS011;30184;42.018;23.670;2023-05-10T08:00:56;13.75;;;8.43;;
44480;SDS011;30184;42.018;23.670;2023-05-10T08:03:25;22.33;;;12.80;;
44480;SDS011;30184;42.018;23.670;2023-05-10T08:05:55;21.30;;;13.18;;
44480;SDS011;30184;42.018;23.670;2023-05-10T08:08:24;18.33;;;10.93;;
44480;SDS011;30184;42.018;23.670;2023-05-10T08:10:53;15.55;;;9.35;;
44480;SDS011;30184;42.018;23.670;2023-05-10T08:13:24;11.57;;;7.68;;
44480;SDS011;30184;42.018;23.670;2023-05-10T08:15:53;10.00;;;7.15;;
44480;SDS011;30184;42.018;23.670;2023-05-10T08:18:22;20.75;;;13.13;;
44480;SDS011;30184;42.018;23.670;2023-05-10T08:20:52;15.30;;;9.23;;
44480;SDS011;30184;42.018;23.670;2023-05-10T08:23:21;18.88;;;13.38;;
44480;SDS011;30184;42.018;23.670;2023-05-10T08:25:50;21.75;;;12.70;;
44480;SDS011;30184;42.018;23.670;2023-05-10T08:28:19;18.08;;;10.48;;
44480;SDS011;30184;42.018;23.670;2023-05-10T08:30:50;12.30;;;7.75;;
44480;SDS011;30184;42.018;23.670;2023-05-10T08:33:19;10.27;;;6.93;;
44480;SDS011;30184;42.018;23.670;2023-05-10T08:35:49;15.85;;;9.55;;
44480;SDS011;30184;42.018;23.670;2023-05-10T08:38:18;20.02;;;11.77;;
44480;SDS011;30184;42.018;23.670;2023-05-10T08:40:47;10.23;;;6.93;;
44480;SDS011;30184;42.018;23.670;2023-05-10T08:43:25;12.73;;;9.05;;
44480;SDS011;30184;42.018;23.670;2023-05-10T08:45:57;18.90;;;9.35;;
44480;SDS011;30184;42.018;23.670;2023-05-10T08:48:30;12.98;;;7.70;;
44480;SDS011;30184;42.018;23.670;2023-05-10T08:51:02;10.95;;;8.10;;
44480;SDS011;30184;42.018;23.670;2023-05-10T08:53:32;11.32;;;8.05;;
44480;SDS011;30184;42.018;23.670;2023-05-10T08:56:05;8.60;;;5.22;;
44480;SDS011;30184;42.018;23.670;2023-05-10T08:58:35;10.07;;;6.72;;
44480;SDS011;30184;42.018;23.670;2023-05-10T09:01:06;12.45;;;7.35;;
44480;SDS011;30184;42.018;23.670;2023-05-10T09:03:38;13.75;;;7.20;;
44480;SDS011;30184;42.018;23.670;2023-05-10T09:06:08;12.75;;;8.25;;
44480;SDS011;30184;42.018;23.670;2023-05-10T09:08:40;11.80;;;8.13;;
44480;SDS011;30184;42.018;23.670;2023-05-10T09:11:11;11.43;;;7.43;;
44480;SDS011;30184;42.018;23.670;2023-05-10T09:13:40;7.80;;;5.13;;
44480;SDS011;30184;42.018;23.670;2023-05-10T09:16:12;8.30;;;5.43;;
44480;SDS011;30184;42.018;23.670;2023-05-10T09:18:46;8.15;;;5.57;;
44480;SDS011;30184;42.018;23.670;2023-05-10T09:21:16;16.75;;;9.05;;
44480;SDS011;30184;42.018;23.670;2023-05-10T09:23:47;21.50;;;10.05;;
44480;SDS011;30184;42.018;23.670;2023-05-10T09:26:17;18.52;;;10.57;;
44480;SDS011;30184;42.018;23.670;2023-05-10T09:28:51;11.32;;;6.10;;
44480;SDS011;30184;42.018;23.670;2023-05-10T09:31:23;14.75;;;7.38;;
44480;SDS011;30184;42.018;23.670;2023-05-10T09:33:53;26.17;;;11.10;;
44480;SDS011;30184;42.018;23.670;2023-05-10T09:36:22;38.92;;;20.05;;
44480;SDS011;30184;42.018;23.670;2023-05-10T09:38:51;18.50;;;8.63;;
44480;SDS011;30184;42.018;23.670;2023-05-10T09:41:21;5.93;;;3.70;;
44480;SDS011;30184;42.018;23.670;2023-05-10T09:43:55;10.82;;;5.40;;
44480;SDS011;30184;42.018;23.670;2023-05-10T09:46:26;8.23;;;4.75;;
44480;SDS011;30184;42.018;23.670;2023-05-10T09:48:55;5.05;;;3.38;;
44480;SDS011;30184;42.018;23.670;2023-05-10T09:51:24;6.10;;;4.03;;
44480;SDS011;30184;42.018;23.670;2023-05-10T09:54:08;7.00;;;4.43;;
44480;SDS011;30184;42.018;23.670;2023-05-10T09:56:38;8.00;;;4.97;;
44480;SDS011;30184;42.018;23.670;2023-05-10T09:59:09;9.60;;;4.50;;
44480;SDS011;30184;42.018;23.670;2023-05-10T10:01:41;9.27;;;5.43;;
44480;SDS011;30184;42.018;23.670;2023-05-10T10:04:10;19.00;;;11.77;;
44480;SDS011;30184;42.018;23.670;2023-05-10T10:06:40;7.38;;;4.20;;
44480;SDS011;30184;42.018;23.670;2023-05-10T10:09:09;5.40;;;3.90;;
44480;SDS011;30184;42.018;23.670;2023-05-10T10:11:38;5.00;;;3.63;;
44480;SDS011;30184;42.018;23.670;2023-05-10T10:14:08;8.40;;;4.95;;
44480;SDS011;30184;42.018;23.670;2023-05-10T10:16:41;6.13;;;4.47;;
44480;SDS011;30184;42.018;23.670;2023-05-10T10:19:18;10.35;;;6.03;;
44480;SDS011;30184;42.018;23.670;2023-05-10T10:21:48;8.88;;;4.60;;
44480;SDS011;30184;42.018;23.670;2023-05-10T10:24:18;6.95;;;5.00;;
44480;SDS011;30184;42.018;23.670;2023-05-10T10:26:47;5.60;;;3.88;;
44480;SDS011;30184;42.018;23.670;2023-05-10T10:29:21;8.15;;;5.43;;
44480;SDS011;30184;42.018;23.670;2023-05-10T10:31:57;18.30;;;8.75;;
44480;SDS011;30184;42.018;23.670;2023-05-10T10:34:38;27.00;;;14.23;;
44480;SDS011;30184;42.018;23.670;2023-05-10T10:37:08;9.85;;;5.88;;
44480;SDS011;30184;42.018;23.670;2023-05-10T10:39:37;12.25;;;7.43;;
44480;SDS011;30184;42.018;23.670;2023-05-10T10:42:06;12.52;;;6.75;;
44480;SDS011;30184;42.018;23.670;2023-05-10T10:44:36;50.33;;;17.35;;
44480;SDS011;30184;42.018;23.670;2023-05-10T10:47:09;32.17;;;13.57;;
44480;SDS011;30184;42.018;23.670;2023-05-10T10:50:06;21.83;;;10.02;;
44480;SDS011;30184;42.018;23.670;2023-05-10T10:52:37;15.13;;;7.82;;
44480;SDS011;30184;42.018;23.670;2023-05-10T10:55:08;14.30;;;7.88;;
44480;SDS011;30184;42.018;23.670;2023-05-10T10:57:42;12.20;;;7.53;;
44480;SDS011;30184;42.018;23.670;2023-05-10T11:00:23;9.68;;;6.10;;
44480;SDS011;30184;42.018;23.670;2023-05-10T11:02:55;10.82;;;5.05;;
44480;SDS011;30184;42.018;23.670;2023-05-10T11:10:50;8.27;;;4.75;;
44480;SDS011;30184;42.018;23.670;2023-05-10T11:13:28;9.63;;;5.82;;
44480;SDS011;30184;42.018;23.670;2023-05-10T11:15:58;7.75;;;5.00;;
44480;SDS011;30184;42.018;23.670;2023-05-10T11:18:39;8.73;;;6.00;;
44480;SDS011;30184;42.018;23.670;2023-05-10T11:21:09;7.82;;;5.00;;
44480;SDS011;30184;42.018;23.670;2023-05-10T11:26:30;7.82;;;5.47;;
44480;SDS011;30184;42.018;23.670;2023-05-10T11:29:00;8.45;;;5.10;;
44480;SDS011;30184;42.018;23.670;2023-05-10T11:31:31;14.35;;;6.07;;
44480;SDS011;30184;42.018;23.670;2023-05-10T11:34:02;13.15;;;8.95;;
44480;SDS011;30184;42.018;23.670;2023-05-10T11:36:32;26.42;;;15.13;;
44480;SDS011;30184;42.018;23.670;2023-05-10T11:39:03;18.52;;;12.50;;
44480;SDS011;30184;42.018;23.670;2023-05-10T11:41:32;12.02;;;8.57;;
44480;SDS011;30184;42.018;23.670;2023-05-10T11:44:02;12.13;;;7.97;;
44480;SDS011;30184;42.018;23.670;2023-05-10T11:46:32;14.23;;;8.00;;
44480;SDS011;30184;42.018;23.670;2023-05-10T11:49:02;16.42;;;9.30;;
44480;SDS011;30184;42.018;23.670;2023-05-10T11:51:34;14.02;;;9.18;;
44480;SDS011;30184;42.018;23.670;2023-05-10T11:54:05;15.98;;;8.63;;
44480;SDS011;30184;42.018;23.670;2023-05-10T11:56:36;14.38;;;9.32;;
44480;SDS011;30184;42.018;23.670;2023-05-10T11:59:06;13.43;;;9.25;;
44480;SDS011;30184;42.018;23.670;2023-05-10T12:01:36;12.68;;;8.25;;
44480;SDS011;30184;42.018;23.670;2023-05-10T12:04:06;13.48;;;9.35;;
44480;SDS011;30184;42.018;23.670;2023-05-10T12:06:37;14.48;;;10.30;;
44480;SDS011;30184;42.018;23.670;2023-05-10T12:09:09;24.10;;;13.55;;
44480;SDS011;30184;42.018;23.670;2023-05-10T12:11:39;44.00;;;22.30;;
44480;SDS011;30184;42.018;23.670;2023-05-10T12:14:10;31.02;;;18.70;;
44480;SDS011;30184;42.018;23.670;2023-05-10T12:16:39;22.55;;;13.27;;
44480;SDS011;30184;42.018;23.670;2023-05-10T12:19:10;32.35;;;18.05;;
44480;SDS011;30184;42.018;23.670;2023-05-10T12:21:39;23.77;;;14.02;;
44480;SDS011;30184;42.018;23.670;2023-05-10T12:24:08;25.30;;;12.38;;
44480;SDS011;30184;42.018;23.670;2023-05-10T12:26:37;19.65;;;11.85;;
44480;SDS011;30184;42.018;23.670;2023-05-10T12:29:17;22.88;;;14.50;;
44480;SDS011;30184;42.018;23.670;2023-05-10T12:31:51;16.80;;;10.85;;
44480;SDS011;30184;42.018;23.670;2023-05-10T12:34:32;19.83;;;12.07;;
44480;SDS011;30184;42.018;23.670;2023-05-10T12:37:02;23.90;;;14.30;;
44480;SDS011;30184;42.018;23.670;2023-05-10T12:39:39;29.92;;;17.52;;
44480;SDS011;30184;42.018;23.670;2023-05-10T12:44:38;28.63;;;16.52;;
44480;SDS011;30184;42.018;23.670;2023-05-10T12:47:08;23.05;;;14.35;;
44480;SDS011;30184;42.018;23.670;2023-05-10T12:49:39;22.30;;;14.52;;
44480;SDS011;30184;42.018;23.670;2023-05-10T12:52:08;22.92;;;14.50;;
44480;SDS011;30184;42.018;23.670;2023-05-10T12:54:37;23.17;;;14.00;;
44480;SDS011;30184;42.018;23.670;2023-05-10T12:57:06;18.25;;;12.30;;
44480;SDS011;30184;42.018;23.670;2023-05-10T12:59:35;19.30;;;13.13;;
44480;SDS011;30184;42.018;23.670;2023-05-10T13:02:05;21.88;;;13.82;;
44480;SDS011;30184;42.018;23.670;2023-05-10T13:04:35;16.98;;;12.40;;
44480;SDS011;30184;42.018;23.670;2023-05-10T13:07:08;18.05;;;12.98;;
44480;SDS011;30184;42.018;23.670;2023-05-10T13:09:37;26.10;;;15.82;;
44480;SDS011;30184;42.018;23.670;2023-05-10T13:12:07;29.80;;;18.02;;
44480;SDS011;30184;42.018;23.670;2023-05-10T13:14:36;26.25;;;16.98;;
44480;SDS011;30184;42.018;23.670;2023-05-10T13:17:05;21.25;;;14.10;;
44480;SDS011;30184;42.018;23.670;2023-05-10T13:19:34;16.90;;;11.43;;
44480;SDS011;30184;42.018;23.670;2023-05-10T13:22:04;20.40;;;14.27;;
44480;SDS011;30184;42.018;23.670;2023-05-10T13:24:34;27.35;;;18.67;;
44480;SDS011;30184;42.018;23.670;2023-05-10T13:27:03;25.20;;;16.48;;
44480;SDS011;30184;42.018;23.670;2023-05-10T13:29:33;28.60;;;16.13;;
44480;SDS011;30184;42.018;23.670;2023-05-10T13:32:02;24.30;;;15.65;;
44480;SDS011;30184;42.018;23.670;2023-05-10T13:34:31;20.25;;;14.68;;
44480;SDS011;30184;42.018;23.670;2023-05-10T13:37:03;27.85;;;17.83;;
44480;SDS011;30184;42.018;23.670;2023-05-10T13:39:32;20.73;;;14.77;;
44480;SDS011;30184;42.018;23.670;2023-05-10T13:42:03;24.83;;;17.40;;
44480;SDS011;30184;42.018;23.670;2023-05-10T13:44:32;24.05;;;15.25;;
44480;SDS011;30184;42.018;23.670;2023-05-10T13:47:02;27.45;;;16.88;;
44480;SDS011;30184;42.018;23.670;2023-05-10T13:49:31;31.55;;;19.20;;
44480;SDS011;30184;42.018;23.670;2023-05-10T13:52:01;24.90;;;15.73;;
44480;SDS011;30184;42.018;23.670;2023-05-10T13:54:35;26.02;;;15.50;;
44480;SDS011;30184;42.018;23.670;2023-05-10T13:57:06;27.75;;;16.90;;
44480;SDS011;30184;42.018;23.670;2023-05-10T13:59:36;26.20;;;17.30;;
44480;SDS011;30184;42.018;23.670;2023-05-10T14:02:05;32.03;;;18.65;;
44480;SDS011;30184;42.018;23.670;2023-05-10T14:04:36;37.28;;;19.77;;
44480;SDS011;30184;42.018;23.670;2023-05-10T14:07:05;27.65;;;17.20;;
44480;SDS011;30184;42.018;23.670;2023-05-10T14:09:35;28.40;;;17.73;;
44480;SDS011;30184;42.018;23.670;2023-05-10T14:12:04;23.10;;;14.88;;
44480;SDS011;30184;42.018;23.670;2023-05-10T14:14:35;42.70;;;23.05;;
44480;SDS011;30184;42.018;23.670;2023-05-10T14:17:05;46.80;;;24.40;;
44480;SDS011;30184;42.018;23.670;2023-05-10T14:19:35;30.73;;;18.67;;
44480;SDS011;30184;42.018;23.670;2023-05-10T14:22:04;25.20;;;15.88;;
44480;SDS011;30184;42.018;23.670;2023-05-10T14:24:34;22.90;;;15.48;;
44480;SDS011;30184;42.018;23.670;2023-05-10T14:27:03;28.27;;;17.48;;
44480;SDS011;30184;42.018;23.670;2023-05-10T14:29:34;31.52;;;19.50;;
44480;SDS011;30184;42.018;23.670;2023-05-10T14:32:04;35.08;;;23.70;;
44480;SDS011;30184;42.018;23.670;2023-05-10T14:34:33;31.48;;;19.77;;
44480;SDS011;30184;42.018;23.670;2023-05-10T14:37:02;101.45;;;59.67;;
44480;SDS011;30184;42.018;23.670;2023-05-10T14:39:32;216.93;;;122.95;;
44480;SDS011;30184;42.018;23.670;2023-05-10T14:42:01;53.03;;;31.20;;
44480;SDS011;30184;42.018;23.670;2023-05-10T14:44:31;33.13;;;21.70;;
44480;SDS011;30184;42.018;23.670;2023-05-10T14:47:02;32.67;;;19.42;;
44480;SDS011;30184;42.018;23.670;2023-05-10T14:49:31;28.83;;;19.35;;
44480;SDS011;30184;42.018;23.670;2023-05-10T14:52:00;30.27;;;20.38;;
44480;SDS011;30184;42.018;23.670;2023-05-10T14:55:02;36.50;;;22.27;;